sensor_id;sensor_type;location;lat;lon;timestamp;temperature;humidity
72106;SHT30;59975;47.646;18.318;2023-02-15T00:00:53;-1.90;96.73
72106;SHT30;59975;47.646;18.318;2023-02-15T00:03:22;-1.90;96.66
72106;SHT30;59975;47.646;18.318;2023-02-15T00:05:47;-1.91;96.63
72106;SHT30;59975;47.646;18.318;2023-02-15T00:08:13;-1.91;96.65
72106;SHT30;59975;47.646;18.318;2023-02-15T00:10:38;-1.99;96.63
72106;SHT30;59975;47.646;18.318;2023-02-15T00:13:04;-1.94;96.78
72106;SHT30;59975;47.646;18.318;2023-02-15T00:15:29;-2.04;96.63
72106;SHT30;59975;47.646;18.318;2023-02-15T00:17:57;-2.01;96.76
72106;SHT30;59975;47.646;18.318;2023-02-15T00:20:22;-2.06;96.60
72106;SHT30;59975;47.646;18.318;2023-02-15T00:22:48;-2.04;96.96
72106;SHT30;59975;47.646;18.318;2023-02-15T00:25:13;-2.04;96.91
72106;SHT30;59975;47.646;18.318;2023-02-15T00:27:39;-2.10;96.82
72106;SHT30;59975;47.646;18.318;2023-02-15T00:30:04;-1.99;97.27
72106;SHT30;59975;47.646;18.318;2023-02-15T00:32:31;-1.90;97.18
72106;SHT30;59975;47.646;18.318;2023-02-15T00:34:56;-1.96;97.11
72106;SHT30;59975;47.646;18.318;2023-02-15T00:37:22;-1.94;96.99
72106;SHT30;59975;47.646;18.318;2023-02-15T00:39:47;-1.89;97.04
72106;SHT30;59975;47.646;18.318;2023-02-15T00:42:13;-1.93;96.92
72106;SHT30;59975;47.646;18.318;2023-02-15T00:44:38;-1.99;96.89
72106;SHT30;59975;47.646;18.318;2023-02-15T00:47:04;-1.99;96.99
72106;SHT30;59975;47.646;18.318;2023-02-15T00:49:29;-1.99;96.87
72106;SHT30;59975;47.646;18.318;2023-02-15T00:51:55;-2.00;96.97
72106;SHT30;59975;47.646;18.318;2023-02-15T00:54:20;-2.06;96.87
72106;SHT30;59975;47.646;18.318;2023-02-15T00:56:46;-2.06;96.82
72106;SHT30;59975;47.646;18.318;2023-02-15T00:59:11;-2.11;96.87
72106;SHT30;59975;47.646;18.318;2023-02-15T01:01:37;-2.01;97.10
72106;SHT30;59975;47.646;18.318;2023-02-15T01:04:02;-2.14;96.90
72106;SHT30;59975;47.646;18.318;2023-02-15T01:06:28;-2.13;97.20
72106;SHT30;59975;47.646;18.318;2023-02-15T01:08:53;-2.13;97.33
72106;SHT30;59975;47.646;18.318;2023-02-15T01:11:21;-2.06;97.50
72106;SHT30;59975;47.646;18.318;2023-02-15T01:13:49;-2.01;97.38
72106;SHT30;59975;47.646;18.318;2023-02-15T01:16:14;-2.04;97.27
72106;SHT30;59975;47.646;18.318;2023-02-15T01:18:40;-2.01;97.10
72106;SHT30;59975;47.646;18.318;2023-02-15T01:21:14;-2.04;96.96
72106;SHT30;59975;47.646;18.318;2023-02-15T01:23:41;-2.03;96.91
72106;SHT30;59975;47.646;18.318;2023-02-15T01:26:07;-2.13;96.92
72106;SHT30;59975;47.646;18.318;2023-02-15T01:28:33;-2.11;96.97
72106;SHT30;59975;47.646;18.318;2023-02-15T01:30:59;-2.10;96.94
72106;SHT30;59975;47.646;18.318;2023-02-15T01:33:29;-2.15;96.94
72106;SHT30;59975;47.646;18.318;2023-02-15T01:35:58;-2.17;97.21
72106;SHT30;59975;47.646;18.318;2023-02-15T01:38:23;-2.13;97.20
72106;SHT30;59975;47.646;18.318;2023-02-15T01:40:53;-2.09;97.26
72106;SHT30;59975;47.646;18.318;2023-02-15T01:43:18;-2.09;97.03
72106;SHT30;59975;47.646;18.318;2023-02-15T01:45:46;-2.15;96.89
72106;SHT30;59975;47.646;18.318;2023-02-15T01:48:21;-2.13;96.77
72106;SHT30;59975;47.646;18.318;2023-02-15T01:51:00;-2.23;96.83
72106;SHT30;59975;47.646;18.318;2023-02-15T01:53:31;-2.26;96.92
72106;SHT30;59975;47.646;18.318;2023-02-15T01:56:04;-2.20;97.07
72106;SHT30;59975;47.646;18.318;2023-02-15T01:58:32;-2.20;97.04
72106;SHT30;59975;47.646;18.318;2023-02-15T02:00:59;-2.19;96.92
72106;SHT30;59975;47.646;18.318;2023-02-15T02:04:00;-2.26;96.73
72106;SHT30;59975;47.646;18.318;2023-02-15T02:06:27;-2.34;96.86
72106;SHT30;59975;47.646;18.318;2023-02-15T02:08:54;-2.28;96.98
72106;SHT30;59975;47.646;18.318;2023-02-15T02:11:20;-2.30;97.13
72106;SHT30;59975;47.646;18.318;2023-02-15T02:13:46;-2.31;97.02
72106;SHT30;59975;47.646;18.318;2023-02-15T02:16:35;-2.27;97.06
72106;SHT30;59975;47.646;18.318;2023-02-15T02:22:07;-2.28;97.23
72106;SHT30;59975;47.646;18.318;2023-02-15T02:33:25;-2.26;96.93
72106;SHT30;59975;47.646;18.318;2023-02-15T02:42:21;-2.30;96.72
72106;SHT30;59975;47.646;18.318;2023-02-15T02:44:46;-2.37;96.80
72106;SHT30;59975;47.646;18.318;2023-02-15T02:47:36;-2.34;96.96
72106;SHT30;59975;47.646;18.318;2023-02-15T02:50:07;-2.34;96.95
72106;SHT30;59975;47.646;18.318;2023-02-15T02:52:47;-2.30;97.00
72106;SHT30;59975;47.646;18.318;2023-02-15T02:55:19;-2.34;96.81
72106;SHT30;59975;47.646;18.318;2023-02-15T02:57:53;-2.36;96.93
72106;SHT30;59975;47.646;18.318;2023-02-15T03:00:21;-2.34;96.85
72106;SHT30;59975;47.646;18.318;2023-02-15T03:02:49;-2.34;96.88
72106;SHT30;59975;47.646;18.318;2023-02-15T03:05:19;-2.34;96.94
72106;SHT30;59975;47.646;18.318;2023-02-15T03:07:49;-2.31;96.82
72106;SHT30;59975;47.646;18.318;2023-02-15T03:10:18;-2.34;96.69
72106;SHT30;59975;47.646;18.318;2023-02-15T03:12:45;-2.44;96.75
72106;SHT30;59975;47.646;18.318;2023-02-15T03:15:20;-2.48;96.69
72106;SHT30;59975;47.646;18.318;2023-02-15T03:17:53;-2.50;96.87
72106;SHT30;59975;47.646;18.318;2023-02-15T03:20:25;-2.50;96.99
72106;SHT30;59975;47.646;18.318;2023-02-15T03:23:03;-2.51;96.83
72106;SHT30;59975;47.646;18.318;2023-02-15T03:25:34;-2.52;96.83
72106;SHT30;59975;47.646;18.318;2023-02-15T03:28:03;-2.47;96.82
72106;SHT30;59975;47.646;18.318;2023-02-15T03:30:31;-2.47;96.83
72106;SHT30;59975;47.646;18.318;2023-02-15T03:32:58;-2.48;96.82
72106;SHT30;59975;47.646;18.318;2023-02-15T03:35:32;-2.51;96.78
72106;SHT30;59975;47.646;18.318;2023-02-15T03:38:00;-2.54;96.75
72106;SHT30;59975;47.646;18.318;2023-02-15T03:40:39;-2.54;97.00
72106;SHT30;59975;47.646;18.318;2023-02-15T03:49:10;-2.62;97.03
72106;SHT30;59975;47.646;18.318;2023-02-15T03:51:39;-2.68;97.10
72106;SHT30;59975;47.646;18.318;2023-02-15T03:54:08;-2.69;97.03
72106;SHT30;59975;47.646;18.318;2023-02-15T03:56:36;-2.66;97.01
72106;SHT30;59975;47.646;18.318;2023-02-15T03:59:03;-2.69;97.02
72106;SHT30;59975;47.646;18.318;2023-02-15T04:01:59;-2.68;96.91
72106;SHT30;59975;47.646;18.318;2023-02-15T04:04:38;-2.73;96.74
72106;SHT30;59975;47.646;18.318;2023-02-15T04:07:06;-2.73;96.74
72106;SHT30;59975;47.646;18.318;2023-02-15T04:09:32;-2.75;96.71
72106;SHT30;59975;47.646;18.318;2023-02-15T04:12:16;-2.82;96.83
72106;SHT30;59975;47.646;18.318;2023-02-15T04:14:42;-2.83;96.89
72106;SHT30;59975;47.646;18.318;2023-02-15T04:17:26;-2.86;96.80
72106;SHT30;59975;47.646;18.318;2023-02-15T04:19:51;-2.89;96.86
72106;SHT30;59975;47.646;18.318;2023-02-15T04:22:35;-2.85;96.83
72106;SHT30;59975;47.646;18.318;2023-02-15T04:25:19;-2.91;96.77
72106;SHT30;59975;47.646;18.318;2023-02-15T04:27:48;-2.89;96.70
72106;SHT30;59975;47.646;18.318;2023-02-15T04:30:15;-2.86;96.74
72106;SHT30;59975;47.646;18.318;2023-02-15T04:32:41;-3.00;96.87
72106;SHT30;59975;47.646;18.318;2023-02-15T04:35:07;-2.93;96.92
72106;SHT30;59975;47.646;18.318;2023-02-15T04:37:34;-3.00;96.81
72106;SHT30;59975;47.646;18.318;2023-02-15T04:40:00;-3.02;97.01
72106;SHT30;59975;47.646;18.318;2023-02-15T04:42:26;-3.10;96.83
72106;SHT30;59975;47.646;18.318;2023-02-15T04:44:52;-3.16;97.10
72106;SHT30;59975;47.646;18.318;2023-02-15T04:47:17;-3.07;97.36
72106;SHT30;59975;47.646;18.318;2023-02-15T04:49:43;-3.12;97.28
72106;SHT30;59975;47.646;18.318;2023-02-15T04:52:09;-3.10;97.21
72106;SHT30;59975;47.646;18.318;2023-02-15T04:54:34;-3.09;97.31
72106;SHT30;59975;47.646;18.318;2023-02-15T04:57:00;-3.07;97.20
72106;SHT30;59975;47.646;18.318;2023-02-15T04:59:26;-3.02;97.13
72106;SHT30;59975;47.646;18.318;2023-02-15T05:01:52;-3.05;97.13
72106;SHT30;59975;47.646;18.318;2023-02-15T05:04:17;-3.07;97.08
72106;SHT30;59975;47.646;18.318;2023-02-15T05:06:43;-3.10;97.15
72106;SHT30;59975;47.646;18.318;2023-02-15T05:09:08;-3.07;97.20
72106;SHT30;59975;47.646;18.318;2023-02-15T05:11:34;-3.07;97.28
72106;SHT30;59975;47.646;18.318;2023-02-15T05:13:59;-3.06;97.18
72106;SHT30;59975;47.646;18.318;2023-02-15T05:16:25;-3.03;97.08
72106;SHT30;59975;47.646;18.318;2023-02-15T05:18:52;-3.13;96.82
72106;SHT30;59975;47.646;18.318;2023-02-15T05:21:18;-3.24;97.20
72106;SHT30;59975;47.646;18.318;2023-02-15T05:23:43;-3.24;97.31
72106;SHT30;59975;47.646;18.318;2023-02-15T05:26:11;-3.17;97.34
72106;SHT30;59975;47.646;18.318;2023-02-15T05:28:55;-3.12;97.19
72106;SHT30;59975;47.646;18.318;2023-02-15T05:31:21;-3.20;97.14
72106;SHT30;59975;47.646;18.318;2023-02-15T05:33:46;-3.24;97.16
72106;SHT30;59975;47.646;18.318;2023-02-15T05:36:12;-3.17;97.31
72106;SHT30;59975;47.646;18.318;2023-02-15T05:38:38;-3.16;97.13
72106;SHT30;59975;47.646;18.318;2023-02-15T05:41:05;-3.23;97.08
72106;SHT30;59975;47.646;18.318;2023-02-15T05:43:31;-3.21;97.00
72106;SHT30;59975;47.646;18.318;2023-02-15T05:45:58;-3.26;97.01
72106;SHT30;59975;47.646;18.318;2023-02-15T05:48:25;-3.35;97.03
72106;SHT30;59975;47.646;18.318;2023-02-15T05:51:17;-3.33;97.21
72106;SHT30;59975;47.646;18.318;2023-02-15T05:53:42;-3.29;97.15
72106;SHT30;59975;47.646;18.318;2023-02-15T05:56:09;-3.26;96.98
72106;SHT30;59975;47.646;18.318;2023-02-15T05:58:37;-3.29;97.09
72106;SHT30;59975;47.646;18.318;2023-02-15T06:01:10;-3.30;96.94
72106;SHT30;59975;47.646;18.318;2023-02-15T06:03:36;-3.30;97.03
72106;SHT30;59975;47.646;18.318;2023-02-15T06:06:02;-3.24;96.77
72106;SHT30;59975;47.646;18.318;2023-02-15T06:08:30;-3.23;96.84
72106;SHT30;59975;47.646;18.318;2023-02-15T06:10:55;-3.21;96.80
72106;SHT30;59975;47.646;18.318;2023-02-15T06:13:21;-3.24;96.77
72106;SHT30;59975;47.646;18.318;2023-02-15T06:15:46;-3.17;96.78
72106;SHT30;59975;47.646;18.318;2023-02-15T06:18:12;-3.13;96.73
72106;SHT30;59975;47.646;18.318;2023-02-15T06:20:40;-3.12;96.77
72106;SHT30;59975;47.646;18.318;2023-02-15T06:23:06;-3.00;96.59
72106;SHT30;59975;47.646;18.318;2023-02-15T06:25:31;-2.97;96.56
72106;SHT30;59975;47.646;18.318;2023-02-15T06:28:00;-2.97;96.58
72106;SHT30;59975;47.646;18.318;2023-02-15T06:30:25;-2.92;96.56
72106;SHT30;59975;47.646;18.318;2023-02-15T06:32:51;-2.88;96.57
72106;SHT30;59975;47.646;18.318;2023-02-15T06:35:17;-2.78;96.68
72106;SHT30;59975;47.646;18.318;2023-02-15T06:37:45;-2.71;96.60
72106;SHT30;59975;47.646;18.318;2023-02-15T06:40:15;-2.62;96.57
72106;SHT30;59975;47.646;18.318;2023-02-15T06:42:47;-2.52;96.35
72106;SHT30;59975;47.646;18.318;2023-02-15T06:45:15;-2.44;96.09
72106;SHT30;59975;47.646;18.318;2023-02-15T06:47:47;-2.42;95.95
72106;SHT30;59975;47.646;18.318;2023-02-15T06:54:12;-2.24;95.90
72106;SHT30;59975;47.646;18.318;2023-02-15T12:24:26;6.37;73.87
72106;SHT30;59975;47.646;18.318;2023-02-15T12:27:05;6.42;73.99
72106;SHT30;59975;47.646;18.318;2023-02-15T12:29:54;6.37;73.59
72106;SHT30;59975;47.646;18.318;2023-02-15T12:32:27;6.29;73.78
72106;SHT30;59975;47.646;18.318;2023-02-15T12:35:41;6.33;74.15
72106;SHT30;59975;47.646;18.318;2023-02-15T12:38:23;6.62;73.23
72106;SHT30;59975;47.646;18.318;2023-02-15T12:41:22;6.56;73.41
72106;SHT30;59975;47.646;18.318;2023-02-15T12:46:31;6.54;74.59
72106;SHT30;59975;47.646;18.318;2023-02-15T12:49:16;6.47;73.70
72106;SHT30;59975;47.646;18.318;2023-02-15T12:51:53;6.62;73.38
72106;SHT30;59975;47.646;18.318;2023-02-15T12:56:50;6.72;73.35
72106;SHT30;59975;47.646;18.318;2023-02-15T12:59:17;6.77;74.39
72106;SHT30;59975;47.646;18.318;2023-02-15T13:01:46;6.73;73.42
72106;SHT30;59975;47.646;18.318;2023-02-15T13:06:50;6.70;74.19
72106;SHT30;59975;47.646;18.318;2023-02-15T13:09:24;6.73;73.76
72106;SHT30;59975;47.646;18.318;2023-02-15T13:11:51;6.76;73.82
72106;SHT30;59975;47.646;18.318;2023-02-15T13:14:25;6.73;73.66
72106;SHT30;59975;47.646;18.318;2023-02-15T13:16:56;6.79;73.54
72106;SHT30;59975;47.646;18.318;2023-02-15T13:19:33;6.80;73.67
72106;SHT30;59975;47.646;18.318;2023-02-15T13:22:05;6.90;74.02
72106;SHT30;59975;47.646;18.318;2023-02-15T13:24:39;6.91;73.03
72106;SHT30;59975;47.646;18.318;2023-02-15T13:27:12;6.96;72.60
72106;SHT30;59975;47.646;18.318;2023-02-15T13:29:38;6.87;73.17
72106;SHT30;59975;47.646;18.318;2023-02-15T13:32:26;6.87;72.57
72106;SHT30;59975;47.646;18.318;2023-02-15T13:34:55;6.79;73.30
72106;SHT30;59975;47.646;18.318;2023-02-15T13:40:48;6.81;72.82
72106;SHT30;59975;47.646;18.318;2023-02-15T13:43:20;6.86;73.44
72106;SHT30;59975;47.646;18.318;2023-02-15T13:49:12;6.87;73.42
72106;SHT30;59975;47.646;18.318;2023-02-15T14:00:27;6.91;72.69
72106;SHT30;59975;47.646;18.318;2023-02-15T14:03:09;6.80;73.07
72106;SHT30;59975;47.646;18.318;2023-02-15T14:05:42;6.77;73.27
72106;SHT30;59975;47.646;18.318;2023-02-15T14:16:20;7.05;72.64
72106;SHT30;59975;47.646;18.318;2023-02-15T14:19:16;7.10;72.21
72106;SHT30;59975;47.646;18.318;2023-02-15T14:21:56;7.01;72.45
72106;SHT30;59975;47.646;18.318;2023-02-15T14:29:59;6.91;72.77
72106;SHT30;59975;47.646;18.318;2023-02-15T14:32:33;6.93;73.09
72106;SHT30;59975;47.646;18.318;2023-02-15T14:35:00;6.96;73.09
72106;SHT30;59975;47.646;18.318;2023-02-15T14:40:32;6.87;73.06
72106;SHT30;59975;47.646;18.318;2023-02-15T14:43:24;6.83;73.35
72106;SHT30;59975;47.646;18.318;2023-02-15T14:49:15;6.60;73.90
72106;SHT30;59975;47.646;18.318;2023-02-15T14:54:09;6.62;74.23
72106;SHT30;59975;47.646;18.318;2023-02-15T14:56:35;6.63;74.42
72106;SHT30;59975;47.646;18.318;2023-02-15T15:01:39;6.69;73.98
72106;SHT30;59975;47.646;18.318;2023-02-15T15:04:07;6.73;73.92
72106;SHT30;59975;47.646;18.318;2023-02-15T15:06:36;6.54;74.74
72106;SHT30;59975;47.646;18.318;2023-02-15T15:09:32;6.53;74.60
72106;SHT30;59975;47.646;18.318;2023-02-15T15:14:46;6.56;74.53
72106;SHT30;59975;47.646;18.318;2023-02-15T15:39:37;5.92;76.19
72106;SHT30;59975;47.646;18.318;2023-02-15T15:42:13;5.98;75.85
72106;SHT30;59975;47.646;18.318;2023-02-15T15:50:18;5.82;76.60
72106;SHT30;59975;47.646;18.318;2023-02-15T15:52:48;5.74;76.62
72106;SHT30;59975;47.646;18.318;2023-02-15T15:55:17;5.68;76.89
72106;SHT30;59975;47.646;18.318;2023-02-15T15:57:52;5.58;77.33
72106;SHT30;59975;47.646;18.318;2023-02-15T16:03:51;5.46;77.46
72106;SHT30;59975;47.646;18.318;2023-02-15T16:09:38;5.37;77.87
72106;SHT30;59975;47.646;18.318;2023-02-15T16:12:25;5.30;78.16
72106;SHT30;59975;47.646;18.318;2023-02-15T16:21:36;4.92;79.80
72106;SHT30;59975;47.646;18.318;2023-02-15T16:27:38;4.58;81.05
72106;SHT30;59975;47.646;18.318;2023-02-15T16:33:35;4.35;82.02
72106;SHT30;59975;47.646;18.318;2023-02-15T16:39:23;4.37;82.16
72106;SHT30;59975;47.646;18.318;2023-02-15T16:41:49;4.30;82.21
72106;SHT30;59975;47.646;18.318;2023-02-15T16:47:46;4.20;82.49
72106;SHT30;59975;47.646;18.318;2023-02-15T16:53:36;4.21;82.43
